Аэропорт
Хомутово (UHSS)

 UHSS / UUS
ЗЦ Хабаровск
Хабаровск (UHHH)
Хабаровск (UHHH)
 46.88870, 142.71800  / 59 ft

 UHSS 250800Z 36004MPS 9999 -SHSN SCT035CB M05/M07 Q1020 R01/420255 NOSIG RMK QFE764/1018
 TAF AMD UHSS 250235Z 2502/2609 20003MPS 9999 BKN030CB TEMPO 2502/2512 0700 +SHSN BKN004 BKN030CB BECMG 2509/2511 34003MPS
UHSS_j_0220
показать схемы
Название сценария Тип сценария Flight Simulator 9 Flight Simulator X Prepar3D v2 Prepar3D v3 Prepar3D v4 xPlane
FSX-UHSS-2015 бесплатный
P3D-UHSS-2015 бесплатный
UHSS P3Dv4 бесплатный
UHSS-FS9 бесплатный
UHSS_XPL бесплатный


2020 © VATRUS division (Privacy Policy)